createdAt,value
2018-11-10T00:02:40.373Z,100983.22
2018-11-10T00:05:46.209Z,100978.00
2018-11-10T00:08:51.646Z,100977.88
2018-11-10T00:11:58.565Z,100973.30
2018-11-10T00:15:04.561Z,100973.70
2018-11-10T00:18:10.105Z,100979.20
2018-11-10T00:21:15.605Z,100966.50
2018-11-10T00:24:21.168Z,100966.22
2018-11-10T00:27:26.717Z,100965.86
2018-11-10T00:30:32.310Z,100969.63
2018-11-10T00:33:38.009Z,100984.02
2018-11-10T00:36:44.022Z,100982.69
2018-11-10T00:39:49.708Z,100977.41
2018-11-10T00:42:55.490Z,100974.67
2018-11-10T00:46:01.626Z,100966.77
2018-11-10T00:49:07.354Z,100966.35
2018-11-10T00:52:13.226Z,100960.19
2018-11-10T00:55:18.743Z,100962.52
2018-11-10T00:58:24.173Z,100952.20
2018-11-10T01:01:30.581Z,100953.58
2018-11-10T01:04:36.135Z,100946.17
2018-11-10T01:07:42.012Z,100937.66
2018-11-10T01:10:47.661Z,100932.34
2018-11-10T01:13:53.222Z,100919.61
2018-11-10T01:16:58.620Z,100926.10
2018-11-10T01:20:04.138Z,100925.67
2018-11-10T01:23:10.092Z,100914.95
2018-11-10T01:26:15.558Z,100912.46
2018-11-10T01:29:21.006Z,100920.52
2018-11-10T01:32:26.403Z,100904.55
2018-11-10T01:35:31.978Z,100908.52
2018-11-10T01:38:37.424Z,100896.02
2018-11-10T01:41:42.918Z,100896.67
2018-11-10T01:44:48.357Z,100884.62
2018-11-10T01:47:53.773Z,100892.88
2018-11-10T01:50:59.210Z,100897.45
2018-11-10T01:54:04.767Z,100899.34
2018-11-10T01:57:10.161Z,100898.11
2018-11-10T02:00:17.365Z,100885.27
2018-11-10T02:03:22.818Z,100880.09
2018-11-10T02:06:28.207Z,100867.41
2018-11-10T02:09:33.618Z,100862.34
2018-11-10T02:12:39.037Z,100859.66
2018-11-10T02:15:44.475Z,100852.45
2018-11-10T02:18:50.006Z,100853.17
2018-11-10T02:21:55.481Z,100846.58
2018-11-10T02:25:01.061Z,100847.55
2018-11-10T02:28:06.694Z,100845.81
2018-11-10T02:31:12.078Z,100842.99
2018-11-10T02:34:17.570Z,100852.20
2018-11-10T02:37:23.077Z,100837.14
2018-11-10T02:40:28.597Z,100844.80
2018-11-10T02:43:34.074Z,100837.32
2018-11-10T02:46:39.485Z,100840.93
2018-11-10T02:49:44.905Z,100830.00
2018-11-10T02:52:50.364Z,100815.88
2018-11-10T02:55:55.951Z,100814.96
2018-11-10T02:59:01.398Z,100810.10
2018-11-10T03:02:06.997Z,100809.38
2018-11-10T03:05:12.587Z,100799.13
2018-11-10T03:08:17.998Z,100797.19
2018-11-10T03:11:23.515Z,100800.03
2018-11-10T03:14:29.159Z,100798.23
2018-11-10T03:17:34.645Z,100797.72
2018-11-10T03:20:40.110Z,100793.16
2018-11-10T03:23:45.582Z,100787.59
2018-11-10T03:26:50.981Z,100778.00
2018-11-10T03:29:56.459Z,100776.84
2018-11-10T03:33:01.864Z,100761.91
2018-11-10T03:36:07.476Z,100755.53
2018-11-10T03:39:13.753Z,100754.13
2018-11-10T03:42:19.227Z,100758.41
2018-11-10T03:45:24.916Z,100755.62
2018-11-10T03:48:30.373Z,100756.41
2018-11-10T03:51:35.767Z,100757.75
2018-11-10T03:54:41.202Z,100747.23
2018-11-10T03:57:46.583Z,100748.16
2018-11-10T04:00:52.123Z,100741.02
2018-11-10T04:03:57.653Z,100746.59
2018-11-10T04:07:03.094Z,100726.75
2018-11-10T04:10:08.690Z,100736.42
2018-11-10T04:13:14.093Z,100741.48
2018-11-10T04:16:19.569Z,100746.45
2018-11-10T04:19:25.034Z,100739.72
2018-11-10T04:22:35.482Z,100727.91
2018-11-10T04:25:41.639Z,100729.16
2018-11-10T04:28:47.035Z,100725.59
2018-11-10T04:31:52.409Z,100726.94
2018-11-10T04:34:57.922Z,100722.20
2018-11-10T04:38:03.425Z,100716.17
2018-11-10T04:41:09.358Z,100718.86
2018-11-10T04:44:14.835Z,100718.39
2018-11-10T04:47:20.214Z,100716.43
2018-11-10T04:50:25.610Z,100711.34
2018-11-10T04:53:31.081Z,100701.74
2018-11-10T04:56:36.505Z,100693.23
2018-11-10T04:59:41.887Z,100681.63
2018-11-10T05:02:47.261Z,100683.12
2018-11-10T05:05:53.089Z,100680.91
2018-11-10T05:08:59.038Z,100690.08
2018-11-10T05:12:04.548Z,100678.97
2018-11-10T05:15:11.564Z,100672.98
2018-11-10T05:18:16.920Z,100673.73
2018-11-10T05:21:22.469Z,100678.14
2018-11-10T05:24:28.399Z,100671.95
2018-11-10T05:27:33.984Z,100666.63
2018-11-10T05:30:39.442Z,100666.48
2018-11-10T05:33:45.391Z,100670.13
2018-11-10T05:36:50.934Z,100664.24
2018-11-10T05:39:56.537Z,100676.45
2018-11-10T05:43:01.973Z,100672.95
2018-11-10T05:46:07.737Z,100659.62
2018-11-10T05:49:13.197Z,100663.20
2018-11-10T05:52:18.569Z,100661.30
2018-11-10T05:55:24.022Z,100657.95
2018-11-10T05:58:29.390Z,100650.45
2018-11-10T06:01:34.825Z,100664.65
2018-11-10T06:04:40.241Z,100659.57
2018-11-10T06:07:45.687Z,100663.93
2018-11-10T06:10:51.049Z,100655.65
2018-11-10T06:13:56.515Z,100666.67
2018-11-10T06:17:01.906Z,100685.02
2018-11-10T06:20:09.342Z,100672.23
2018-11-10T06:23:14.753Z,100654.52
2018-11-10T06:26:20.126Z,100652.73
2018-11-10T06:29:25.698Z,100654.47
2018-11-10T06:32:31.203Z,100675.34
2018-11-10T06:35:36.799Z,100676.64
2018-11-10T06:38:42.218Z,100658.52
2018-11-10T06:41:47.582Z,100646.84
2018-11-10T06:44:53.052Z,100660.92
2018-11-10T06:47:58.456Z,100668.07
2018-11-10T06:51:03.831Z,100675.22
2018-11-10T06:54:09.335Z,100677.16
2018-11-10T06:57:14.766Z,100664.20
2018-11-10T07:00:20.178Z,100655.50
2018-11-10T07:03:25.662Z,100641.59
2018-11-10T07:06:31.210Z,100636.61
2018-11-10T07:09:36.629Z,100632.86
2018-11-10T07:12:42.186Z,100627.64
2018-11-10T07:15:47.628Z,100630.98
2018-11-10T07:18:53.019Z,100636.75
2018-11-10T07:21:58.369Z,100633.84
2018-11-10T07:25:04.265Z,100635.08
2018-11-10T07:28:09.743Z,100635.05
2018-11-10T07:31:15.665Z,100624.81
2018-11-10T07:34:21.269Z,100623.95
2018-11-10T07:37:26.677Z,100620.55
2018-11-10T07:40:32.207Z,100626.74
2018-11-10T07:43:37.669Z,100609.98
2018-11-10T07:46:43.042Z,100615.91
2018-11-10T07:49:48.454Z,100607.13
2018-11-10T07:52:53.809Z,100614.31
2018-11-10T07:55:59.382Z,100607.28
2018-11-10T07:59:05.146Z,100599.09
2018-11-10T08:02:10.559Z,100593.98
2018-11-10T08:05:16.554Z,100590.27
2018-11-10T08:08:22.205Z,100584.17
2018-11-10T08:11:27.594Z,100583.72
2018-11-10T08:14:33.008Z,100583.88
2018-11-10T08:17:38.544Z,100591.23
2018-11-10T08:20:43.934Z,100591.80
2018-11-10T08:23:49.574Z,100594.20
2018-11-10T08:26:57.087Z,100606.83
2018-11-10T08:30:02.571Z,100602.06
2018-11-10T08:33:08.813Z,100603.08
2018-11-10T08:36:14.233Z,100600.08
2018-11-10T08:39:19.709Z,100591.73
2018-11-10T08:42:25.289Z,100594.35
2018-11-10T08:45:30.777Z,100590.23
2018-11-10T08:48:36.194Z,100589.76
2018-11-10T08:51:41.635Z,100579.28
2018-11-10T08:54:47.366Z,100588.52
2018-11-10T08:57:52.774Z,100584.09
2018-11-10T09:00:58.222Z,100592.03
2018-11-10T09:04:03.663Z,100591.12
2018-11-10T09:07:09.706Z,100597.64
2018-11-10T09:10:15.478Z,100604.83
2018-11-10T09:13:20.974Z,100607.57
2018-11-10T09:16:28.334Z,100612.42
2018-11-10T09:19:34.139Z,100614.12
2018-11-10T09:22:39.546Z,100614.42
2018-11-10T09:25:45.077Z,100620.30
2018-11-10T09:28:50.664Z,100616.13
2018-11-10T09:31:56.205Z,100624.00
2018-11-10T09:35:02.223Z,100633.03
2018-11-10T09:38:08.661Z,100633.19
2018-11-10T09:41:16.562Z,100638.62
2018-11-10T09:44:22.535Z,100631.20
2018-11-10T09:47:28.122Z,100624.30
2018-11-10T09:50:33.648Z,100630.27
2018-11-10T09:53:39.348Z,100626.81
2018-11-10T09:56:46.616Z,100619.61
2018-11-10T09:59:55.003Z,100629.34
2018-11-10T10:03:00.488Z,100634.84
2018-11-10T10:06:06.266Z,100629.18
2018-11-10T10:09:12.418Z,100617.84
2018-11-10T10:12:18.012Z,100615.07
2018-11-10T10:15:23.699Z,100609.36
2018-11-10T10:18:29.361Z,100609.59
2018-11-10T10:21:35.143Z,100613.56
2018-11-10T10:24:41.034Z,100618.88
2018-11-10T10:27:48.103Z,100617.06
2018-11-10T10:30:53.809Z,100615.28
2018-11-10T10:33:59.664Z,100615.00
2018-11-10T10:37:05.595Z,100601.62
2018-11-10T10:40:12.873Z,100591.95
2018-11-10T10:43:18.894Z,100590.16
2018-11-10T10:46:24.529Z,100590.27
2018-11-10T10:49:29.999Z,100592.38
2018-11-10T10:52:35.526Z,100581.98
2018-11-10T10:55:41.087Z,100573.28
2018-11-10T10:58:46.532Z,100573.21
2018-11-10T11:02:57.817Z,100564.95
2018-11-10T11:06:03.575Z,100564.75
2018-11-10T11:09:09.935Z,100562.73
2018-11-10T11:12:15.726Z,100555.19
2018-11-10T11:15:22.080Z,100564.62
2018-11-10T11:18:27.790Z,100556.88
2018-11-10T11:21:33.225Z,100568.34
2018-11-10T11:24:39.004Z,100566.48
2018-11-10T11:27:44.604Z,100558.58
2018-11-10T11:30:50.254Z,100554.78
2018-11-10T11:33:55.891Z,100543.55
2018-11-10T11:37:01.458Z,100554.39
2018-11-10T11:40:09.551Z,100562.02
2018-11-10T11:43:15.165Z,100566.09
2018-11-10T11:46:20.670Z,100561.97
2018-11-10T11:49:26.445Z,100564.58
2018-11-10T11:52:44.314Z,100565.17
2018-11-10T11:55:50.411Z,100563.97
2018-11-10T11:58:58.300Z,100563.97
2018-11-10T12:02:04.137Z,100565.45
2018-11-10T12:05:11.961Z,100566.55
2018-11-10T12:08:17.499Z,100562.66
2018-11-10T12:11:23.787Z,100560.17
2018-11-10T12:14:29.486Z,100559.14
2018-11-10T12:17:35.227Z,100548.15
2018-11-10T12:20:40.754Z,100549.09
2018-11-10T12:23:46.549Z,100558.47
2018-11-10T12:26:52.121Z,100555.70
2018-11-10T12:29:57.777Z,100556.75
2018-11-10T12:33:03.198Z,100557.03
2018-11-10T12:36:08.857Z,100563.48
2018-11-10T12:39:14.476Z,100560.67
2018-11-10T12:42:20.014Z,100557.34
2018-11-10T12:45:25.680Z,100554.82
2018-11-10T12:48:31.151Z,100561.07
2018-11-10T12:51:36.710Z,100543.14
2018-11-10T12:54:42.408Z,100564.72
2018-11-10T12:57:48.250Z,100555.41
2018-11-10T13:00:54.129Z,100549.36
2018-11-10T13:04:00.040Z,100562.22
2018-11-10T13:07:05.757Z,100559.30
2018-11-10T13:10:12.018Z,100553.70
2018-11-10T13:13:17.627Z,100559.51
2018-11-10T13:16:23.183Z,100553.52
2018-11-10T13:19:28.794Z,100562.28
2018-11-10T13:22:34.281Z,100558.84
2018-11-10T13:25:39.726Z,100557.33
2018-11-10T13:28:45.290Z,100550.98
2018-11-10T13:31:50.810Z,100561.06
2018-11-10T13:34:56.530Z,100565.38
2018-11-10T13:38:02.185Z,100564.62
2018-11-10T13:41:07.794Z,100562.09
2018-11-10T13:44:13.406Z,100569.47
2018-11-10T13:47:18.959Z,100553.95
2018-11-10T13:50:24.381Z,100563.67
2018-11-10T13:53:29.798Z,100551.53
2018-11-10T13:56:35.208Z,100561.03
2018-11-10T13:59:40.737Z,100566.22
2018-11-10T14:02:46.150Z,100566.06
2018-11-10T14:05:51.610Z,100565.33
2018-11-10T14:08:57.605Z,100562.67
2018-11-10T14:12:03.381Z,100567.55
2018-11-10T14:15:09.446Z,100559.17
2018-11-10T14:18:14.982Z,100567.99
2018-11-10T14:21:20.378Z,100573.03
2018-11-10T14:24:25.858Z,100567.31
2018-11-10T14:27:31.359Z,100575.09
2018-11-10T14:30:36.734Z,100573.67
2018-11-10T14:33:42.211Z,100572.55
2018-11-10T14:36:47.594Z,100574.74
2018-11-10T14:39:52.978Z,100569.97
2018-11-10T14:42:58.374Z,100574.09
2018-11-10T14:46:03.891Z,100570.98
2018-11-10T14:49:09.337Z,100574.74
2018-11-10T14:52:14.735Z,100577.34
2018-11-10T14:55:20.266Z,100572.42
2018-11-10T14:58:25.726Z,100584.08
2018-11-10T15:01:32.706Z,100574.59
2018-11-10T15:04:38.270Z,100574.20
2018-11-10T15:07:44.314Z,100578.19
2018-11-10T15:10:49.725Z,100581.62
2018-11-10T15:13:55.362Z,100590.67
2018-11-10T15:17:00.758Z,100583.25
2018-11-10T15:20:07.714Z,100591.06
2018-11-10T15:23:13.161Z,100593.45
2018-11-10T15:26:18.558Z,100587.48
2018-11-10T15:29:23.954Z,100597.33
2018-11-10T15:32:29.310Z,100596.17
2018-11-10T15:35:34.801Z,100598.67
2018-11-10T15:38:40.402Z,100595.41
2018-11-10T15:41:45.773Z,100594.48
2018-11-10T15:44:51.303Z,100593.01
2018-11-10T15:47:56.870Z,100600.63
2018-11-10T15:51:02.314Z,100594.75
2018-11-10T15:54:07.934Z,100598.59
2018-11-10T15:57:13.473Z,100603.26
2018-11-10T16:00:20.042Z,100600.45
2018-11-10T16:03:25.949Z,100601.75
2018-11-10T16:06:31.909Z,100601.50
2018-11-10T16:09:37.544Z,100596.59
2018-11-10T16:12:43.178Z,100600.13
2018-11-10T16:15:48.850Z,100600.92
2018-11-10T16:18:54.349Z,100593.40
2018-11-10T16:22:01.503Z,100591.39
2018-11-10T16:25:08.979Z,100593.03
2018-11-10T16:28:14.446Z,100590.43
2018-11-10T16:31:19.948Z,100591.47
2018-11-10T16:34:25.502Z,100594.45
2018-11-10T16:37:32.992Z,100594.51
2018-11-10T16:40:38.467Z,100598.24
2018-11-10T16:43:46.555Z,100595.22
2018-11-10T16:46:52.046Z,100598.53
2018-11-10T16:49:57.741Z,100592.73
2018-11-10T16:53:03.590Z,100592.52
2018-11-10T16:56:09.502Z,100595.81
2018-11-10T16:59:16.565Z,100589.49
2018-11-10T17:02:22.140Z,100600.55
2018-11-10T17:05:27.702Z,100591.17
2018-11-10T17:08:33.184Z,100591.64
2018-11-10T17:11:39.218Z,100590.26
2018-11-10T17:14:46.114Z,100587.66
2018-11-10T17:20:54.165Z,100583.95
2018-11-10T17:24:00.371Z,100584.95
2018-11-10T17:27:06.685Z,100589.66
2018-11-10T17:30:19.111Z,100582.91
2018-11-10T17:33:25.715Z,100577.59
2018-11-10T17:36:31.361Z,100576.64
2018-11-10T17:39:36.947Z,100584.53
2018-11-10T17:42:42.834Z,100576.98
2018-11-10T17:45:48.650Z,100583.09
2018-11-10T17:48:54.358Z,100581.97
2018-11-10T17:51:59.929Z,100573.75
2018-11-10T17:55:07.155Z,100578.91
2018-11-10T17:58:16.680Z,100568.48
2018-11-10T18:01:24.472Z,100570.01
2018-11-10T18:04:30.192Z,100564.48
2018-11-10T18:07:35.742Z,100562.73
2018-11-10T18:10:41.257Z,100566.05
2018-11-10T18:13:46.782Z,100563.84
2018-11-10T18:16:52.427Z,100561.20
2018-11-10T18:19:59.279Z,100559.30
2018-11-10T18:23:07.533Z,100561.97
2018-11-10T18:26:15.594Z,100556.58
2018-11-10T18:29:21.344Z,100555.46
2018-11-10T18:32:26.965Z,100551.14
2018-11-10T18:35:35.197Z,100544.29
2018-11-10T18:38:42.584Z,100553.80
2018-11-10T18:41:48.333Z,100559.08
2018-11-10T18:45:07.463Z,100550.84
2018-11-10T18:48:15.038Z,100563.38
2018-11-10T18:51:21.452Z,100550.38
2018-11-10T18:54:26.990Z,100545.52
2018-11-10T18:57:32.538Z,100549.25
2018-11-10T19:00:37.974Z,100548.41
2018-11-10T19:03:43.507Z,100553.80
2018-11-10T19:06:49.253Z,100555.52
2018-11-10T19:09:54.718Z,100554.45
2018-11-10T19:13:00.269Z,100548.30
2018-11-10T19:16:06.173Z,100559.08
2018-11-10T19:19:11.625Z,100559.59
2018-11-10T19:22:17.099Z,100559.49
2018-11-10T19:25:22.562Z,100551.55
2018-11-10T19:28:28.071Z,100548.34
2018-11-10T19:31:33.539Z,100534.84
2018-11-10T19:34:40.214Z,100530.58
2018-11-10T19:37:46.226Z,100520.88
2018-11-10T19:40:51.656Z,100537.52
2018-11-10T19:43:57.094Z,100527.53
2018-11-10T19:47:02.495Z,100534.99
2018-11-10T19:50:08.352Z,100545.48
2018-11-10T19:53:14.194Z,100537.93
2018-11-10T19:56:19.632Z,100553.73
2018-11-10T19:59:25.092Z,100559.52
2018-11-10T20:02:30.485Z,100556.67
2018-11-10T20:05:35.971Z,100547.23
2018-11-10T20:08:41.672Z,100550.26
2018-11-10T20:11:58.899Z,100543.97
2018-11-10T20:15:06.319Z,100554.14
2018-11-10T20:18:15.044Z,100545.45
2018-11-10T20:21:21.581Z,100542.23
2018-11-10T20:24:27.090Z,100545.42
2018-11-10T20:27:32.610Z,100555.48
2018-11-10T20:30:38.053Z,100560.19
2018-11-10T20:33:43.582Z,100556.57
2018-11-10T20:36:49.249Z,100553.75
2018-11-10T20:39:54.675Z,100557.51
2018-11-10T20:43:00.595Z,100553.61
2018-11-10T20:46:07.027Z,100555.56
2018-11-10T20:49:12.545Z,100552.19
2018-11-10T20:52:17.940Z,100553.35
2018-11-10T20:55:23.428Z,100552.08
2018-11-10T20:58:28.848Z,100547.27
2018-11-10T21:01:34.259Z,100552.95
2018-11-10T21:04:40.118Z,100547.81
2018-11-10T21:07:45.804Z,100545.02
2018-11-10T21:10:51.203Z,100538.87
2018-11-10T21:13:56.662Z,100539.73
2018-11-10T21:17:02.075Z,100541.50
2018-11-10T21:20:09.271Z,100537.48
2018-11-10T21:23:14.902Z,100544.61
2018-11-10T21:26:20.304Z,100551.48
2018-11-10T21:29:25.751Z,100549.91
2018-11-10T21:32:31.341Z,100550.37
2018-11-10T21:35:36.994Z,100548.59
2018-11-10T21:38:42.500Z,100552.97
2018-11-10T21:41:47.946Z,100550.77
2018-11-10T21:44:53.422Z,100551.41
2018-11-10T21:47:58.766Z,100553.94
2018-11-10T21:51:04.159Z,100549.61
2018-11-10T21:54:09.702Z,100543.14
2018-11-10T21:57:15.131Z,100537.84
2018-11-10T22:00:21.878Z,100541.65
2018-11-10T22:03:27.378Z,100541.84
2018-11-10T22:06:32.958Z,100538.75
2018-11-10T22:09:38.394Z,100529.03
2018-11-10T22:12:44.617Z,100528.02
2018-11-10T22:15:50.313Z,100530.28
2018-11-10T22:18:55.878Z,100533.35
2018-11-10T22:22:01.348Z,100528.72
2018-11-10T22:25:08.995Z,100526.02
2018-11-10T22:28:14.358Z,100519.75
2018-11-10T22:31:19.868Z,100520.59
2018-11-10T22:34:25.362Z,100522.83
2018-11-10T22:37:30.810Z,100529.25
2018-11-10T22:40:36.249Z,100536.02
2018-11-10T22:43:41.954Z,100538.89
2018-11-10T22:46:47.363Z,100529.72
2018-11-10T22:49:53.065Z,100528.42
2018-11-10T22:52:58.494Z,100532.34
2018-11-10T22:56:03.998Z,100540.91
2018-11-10T22:59:09.522Z,100543.22
2018-11-10T23:02:14.925Z,100536.26
2018-11-10T23:05:20.930Z,100536.05
2018-11-10T23:08:26.285Z,100523.30
2018-11-10T23:11:31.694Z,100519.86
2018-11-10T23:14:37.181Z,100518.65
2018-11-10T23:17:42.914Z,100513.70
2018-11-10T23:20:48.285Z,100524.51
2018-11-10T23:23:53.750Z,100517.16
2018-11-10T23:26:59.108Z,100520.41
2018-11-10T23:30:04.590Z,100519.13
2018-11-10T23:33:09.974Z,100514.41
2018-11-10T23:36:15.429Z,100509.77
2018-11-10T23:39:20.802Z,100516.75
2018-11-10T23:42:26.186Z,100520.03
2018-11-10T23:45:31.669Z,100517.64
2018-11-10T23:48:37.054Z,100512.77
2018-11-10T23:51:42.394Z,100521.80
2018-11-10T23:54:47.799Z,100520.04
2018-11-10T23:57:53.186Z,100524.50
